sensor_id;sensor_type;location;lat;lon;timestamp;temperature;humidity
4874;DHT22;2451;49.970;9.068;2023-02-04T00:01:42;7.90;99.90
4874;DHT22;2451;49.970;9.068;2023-02-04T00:04:08;7.90;99.90
4874;DHT22;2451;49.970;9.068;2023-02-04T00:06:33;7.90;99.90
4874;DHT22;2451;49.970;9.068;2023-02-04T00:08:59;7.90;99.90
4874;DHT22;2451;49.970;9.068;2023-02-04T00:11:27;7.90;99.90
4874;DHT22;2451;49.970;9.068;2023-02-04T00:13:53;7.90;99.90
4874;DHT22;2451;49.970;9.068;2023-02-04T00:16:19;7.90;99.90
4874;DHT22;2451;49.970;9.068;2023-02-04T00:18:44;7.90;99.90
4874;DHT22;2451;49.970;9.068;2023-02-04T00:21:10;7.80;99.90
4874;DHT22;2451;49.970;9.068;2023-02-04T00:23:35;7.80;99.90
4874;DHT22;2451;49.970;9.068;2023-02-04T00:26:01;7.70;99.90
4874;DHT22;2451;49.970;9.068;2023-02-04T00:28:26;7.80;99.90
4874;DHT22;2451;49.970;9.068;2023-02-04T00:30:52;7.70;99.90
4874;DHT22;2451;49.970;9.068;2023-02-04T00:33:17;7.70;99.90
4874;DHT22;2451;49.970;9.068;2023-02-04T00:35:44;7.70;99.90
4874;DHT22;2451;49.970;9.068;2023-02-04T00:38:09;7.70;99.90
4874;DHT22;2451;49.970;9.068;2023-02-04T00:40:35;7.70;99.90
4874;DHT22;2451;49.970;9.068;2023-02-04T00:43:01;7.70;99.90
4874;DHT22;2451;49.970;9.068;2023-02-04T00:45:26;7.60;99.90
4874;DHT22;2451;49.970;9.068;2023-02-04T00:47:52;7.60;99.90
4874;DHT22;2451;49.970;9.068;2023-02-04T00:50:18;7.70;99.90
4874;DHT22;2451;49.970;9.068;2023-02-04T00:52:43;7.70;99.90
4874;DHT22;2451;49.970;9.068;2023-02-04T00:55:09;7.70;99.90
4874;DHT22;2451;49.970;9.068;2023-02-04T00:57:36;7.70;99.90
4874;DHT22;2451;49.970;9.068;2023-02-04T01:00:04;7.60;99.90
4874;DHT22;2451;49.970;9.068;2023-02-04T01:02:30;7.60;99.90
4874;DHT22;2451;49.970;9.068;2023-02-04T01:04:56;7.60;99.90
4874;DHT22;2451;49.970;9.068;2023-02-04T01:07:22;7.60;99.90
4874;DHT22;2451;49.970;9.068;2023-02-04T01:09:47;7.60;99.90
4874;DHT22;2451;49.970;9.068;2023-02-04T01:12:13;7.60;99.90
4874;DHT22;2451;49.970;9.068;2023-02-04T01:14:38;7.60;99.90
4874;DHT22;2451;49.970;9.068;2023-02-04T01:17:04;7.60;99.90
4874;DHT22;2451;49.970;9.068;2023-02-04T01:19:30;7.50;99.90
4874;DHT22;2451;49.970;9.068;2023-02-04T01:21:55;7.50;99.90
4874;DHT22;2451;49.970;9.068;2023-02-04T01:24:21;7.50;99.90
4874;DHT22;2451;49.970;9.068;2023-02-04T01:26:46;7.40;99.90
4874;DHT22;2451;49.970;9.068;2023-02-04T01:29:12;7.40;99.90
4874;DHT22;2451;49.970;9.068;2023-02-04T01:31:37;7.30;99.90
4874;DHT22;2451;49.970;9.068;2023-02-04T01:34:03;7.30;99.90
4874;DHT22;2451;49.970;9.068;2023-02-04T01:36:28;7.40;99.90
4874;DHT22;2451;49.970;9.068;2023-02-04T01:38:54;7.30;99.90
4874;DHT22;2451;49.970;9.068;2023-02-04T01:41:19;7.40;99.90
4874;DHT22;2451;49.970;9.068;2023-02-04T01:43:46;7.40;99.90
4874;DHT22;2451;49.970;9.068;2023-02-04T01:46:12;7.40;99.90
4874;DHT22;2451;49.970;9.068;2023-02-04T01:48:38;7.40;99.90
4874;DHT22;2451;49.970;9.068;2023-02-04T01:51:06;7.30;99.90
4874;DHT22;2451;49.970;9.068;2023-02-04T01:53:34;7.30;99.90
4874;DHT22;2451;49.970;9.068;2023-02-04T01:56:00;7.30;99.90
4874;DHT22;2451;49.970;9.068;2023-02-04T01:58:28;7.20;99.90
4874;DHT22;2451;49.970;9.068;2023-02-04T02:00:55;7.20;99.90
4874;DHT22;2451;49.970;9.068;2023-02-04T02:03:21;7.10;99.90
4874;DHT22;2451;49.970;9.068;2023-02-04T02:05:51;7.10;99.90
4874;DHT22;2451;49.970;9.068;2023-02-04T02:08:18;7.20;99.90
4874;DHT22;2451;49.970;9.068;2023-02-04T02:10:46;7.20;99.90
4874;DHT22;2451;49.970;9.068;2023-02-04T02:13:16;7.20;99.90
4874;DHT22;2451;49.970;9.068;2023-02-04T02:15:42;7.10;99.90
4874;DHT22;2451;49.970;9.068;2023-02-04T02:18:08;7.00;99.90
4874;DHT22;2451;49.970;9.068;2023-02-04T02:20:34;7.00;99.90
4874;DHT22;2451;49.970;9.068;2023-02-04T02:25:48;7.00;99.90
4874;DHT22;2451;49.970;9.068;2023-02-04T02:28:18;6.90;99.90
4874;DHT22;2451;49.970;9.068;2023-02-04T02:30:46;6.90;99.90
4874;DHT22;2451;49.970;9.068;2023-02-04T02:33:14;6.90;99.90
4874;DHT22;2451;49.970;9.068;2023-02-04T02:35:42;6.90;99.90
4874;DHT22;2451;49.970;9.068;2023-02-04T02:38:11;6.90;99.90
4874;DHT22;2451;49.970;9.068;2023-02-04T02:40:37;6.90;99.90
4874;DHT22;2451;49.970;9.068;2023-02-04T02:43:03;6.90;99.90
4874;DHT22;2451;49.970;9.068;2023-02-04T02:45:30;6.90;99.90
4874;DHT22;2451;49.970;9.068;2023-02-04T02:48:00;6.80;99.90
4874;DHT22;2451;49.970;9.068;2023-02-04T02:50:29;6.80;99.90
4874;DHT22;2451;49.970;9.068;2023-02-04T02:52:56;6.80;99.90
4874;DHT22;2451;49.970;9.068;2023-02-04T02:55:24;6.70;99.90
4874;DHT22;2451;49.970;9.068;2023-02-04T02:57:51;6.70;99.90
4874;DHT22;2451;49.970;9.068;2023-02-04T03:00:20;6.60;99.90
4874;DHT22;2451;49.970;9.068;2023-02-04T03:02:59;6.60;99.90
4874;DHT22;2451;49.970;9.068;2023-02-04T03:05:26;6.60;99.90
4874;DHT22;2451;49.970;9.068;2023-02-04T03:07:52;6.50;99.90
4874;DHT22;2451;49.970;9.068;2023-02-04T03:10:18;6.50;99.90
4874;DHT22;2451;49.970;9.068;2023-02-04T03:12:47;6.50;99.90
4874;DHT22;2451;49.970;9.068;2023-02-04T03:15:13;6.50;99.90
4874;DHT22;2451;49.970;9.068;2023-02-04T03:17:39;6.50;99.90
4874;DHT22;2451;49.970;9.068;2023-02-04T03:20:06;6.50;99.90
4874;DHT22;2451;49.970;9.068;2023-02-04T03:22:32;6.50;99.90
4874;DHT22;2451;49.970;9.068;2023-02-04T03:24:58;6.50;99.90
4874;DHT22;2451;49.970;9.068;2023-02-04T03:27:23;6.50;99.90
4874;DHT22;2451;49.970;9.068;2023-02-04T03:29:49;6.60;99.90
4874;DHT22;2451;49.970;9.068;2023-02-04T03:32:15;6.60;99.90
4874;DHT22;2451;49.970;9.068;2023-02-04T03:34:40;6.60;99.90
4874;DHT22;2451;49.970;9.068;2023-02-04T03:37:07;6.60;99.90
4874;DHT22;2451;49.970;9.068;2023-02-04T03:39:33;6.60;99.90
4874;DHT22;2451;49.970;9.068;2023-02-04T03:41:59;6.60;99.90
4874;DHT22;2451;49.970;9.068;2023-02-04T03:44:25;6.60;99.90
4874;DHT22;2451;49.970;9.068;2023-02-04T03:46:52;6.50;99.90
4874;DHT22;2451;49.970;9.068;2023-02-04T03:49:23;6.60;99.90
4874;DHT22;2451;49.970;9.068;2023-02-04T03:51:49;6.50;99.90
4874;DHT22;2451;49.970;9.068;2023-02-04T03:54:14;6.40;99.90
4874;DHT22;2451;49.970;9.068;2023-02-04T03:56:40;6.40;99.90
4874;DHT22;2451;49.970;9.068;2023-02-04T03:59:06;6.40;99.90
4874;DHT22;2451;49.970;9.068;2023-02-04T04:01:34;6.30;99.90
4874;DHT22;2451;49.970;9.068;2023-02-04T04:04:00;6.30;99.90
4874;DHT22;2451;49.970;9.068;2023-02-04T04:06:25;6.30;99.90
4874;DHT22;2451;49.970;9.068;2023-02-04T04:08:51;6.30;99.90
4874;DHT22;2451;49.970;9.068;2023-02-04T04:11:16;6.20;99.90
4874;DHT22;2451;49.970;9.068;2023-02-04T04:13:42;6.30;99.90
4874;DHT22;2451;49.970;9.068;2023-02-04T04:16:08;6.20;99.90
4874;DHT22;2451;49.970;9.068;2023-02-04T04:18:34;6.30;99.90
4874;DHT22;2451;49.970;9.068;2023-02-04T04:21:00;6.30;99.90
4874;DHT22;2451;49.970;9.068;2023-02-04T04:23:25;6.30;99.90
4874;DHT22;2451;49.970;9.068;2023-02-04T04:25:51;6.30;99.90
4874;DHT22;2451;49.970;9.068;2023-02-04T04:28:17;6.30;99.90
4874;DHT22;2451;49.970;9.068;2023-02-04T04:30:42;6.30;99.90
4874;DHT22;2451;49.970;9.068;2023-02-04T04:33:08;6.30;99.90
4874;DHT22;2451;49.970;9.068;2023-02-04T04:35:33;6.30;99.90
4874;DHT22;2451;49.970;9.068;2023-02-04T04:38:00;6.30;99.90
4874;DHT22;2451;49.970;9.068;2023-02-04T04:40:26;6.30;99.90
4874;DHT22;2451;49.970;9.068;2023-02-04T04:42:51;6.30;99.90
4874;DHT22;2451;49.970;9.068;2023-02-04T04:45:17;6.30;99.90
4874;DHT22;2451;49.970;9.068;2023-02-04T04:47:44;6.30;99.90
4874;DHT22;2451;49.970;9.068;2023-02-04T04:50:09;6.20;99.90
4874;DHT22;2451;49.970;9.068;2023-02-04T04:52:35;6.20;99.90
4874;DHT22;2451;49.970;9.068;2023-02-04T04:55:00;6.20;99.90
4874;DHT22;2451;49.970;9.068;2023-02-04T04:57:26;6.20;99.90
4874;DHT22;2451;49.970;9.068;2023-02-04T04:59:51;6.20;99.90
4874;DHT22;2451;49.970;9.068;2023-02-04T05:02:17;6.20;99.90
4874;DHT22;2451;49.970;9.068;2023-02-04T05:04:43;6.10;99.90
4874;DHT22;2451;49.970;9.068;2023-02-04T05:07:08;6.10;99.90
4874;DHT22;2451;49.970;9.068;2023-02-04T05:09:34;6.10;99.90
4874;DHT22;2451;49.970;9.068;2023-02-04T05:11:59;6.10;99.90
4874;DHT22;2451;49.970;9.068;2023-02-04T05:14:25;6.00;99.90
4874;DHT22;2451;49.970;9.068;2023-02-04T05:16:50;6.00;99.90
4874;DHT22;2451;49.970;9.068;2023-02-04T05:19:16;6.00;99.90
4874;DHT22;2451;49.970;9.068;2023-02-04T05:21:42;5.90;99.90
4874;DHT22;2451;49.970;9.068;2023-02-04T05:24:07;5.90;99.90
4874;DHT22;2451;49.970;9.068;2023-02-04T05:26:33;5.90;99.90
4874;DHT22;2451;49.970;9.068;2023-02-04T05:28:58;5.90;99.90
4874;DHT22;2451;49.970;9.068;2023-02-04T05:31:27;5.90;99.90
4874;DHT22;2451;49.970;9.068;2023-02-04T05:33:53;5.90;99.90
4874;DHT22;2451;49.970;9.068;2023-02-04T05:36:19;5.90;99.90
4874;DHT22;2451;49.970;9.068;2023-02-04T05:38:44;5.80;99.90
4874;DHT22;2451;49.970;9.068;2023-02-04T05:41:10;5.80;99.90
4874;DHT22;2451;49.970;9.068;2023-02-04T05:43:36;5.70;99.90
4874;DHT22;2451;49.970;9.068;2023-02-04T05:46:01;5.70;99.90
4874;DHT22;2451;49.970;9.068;2023-02-04T05:48:27;5.70;99.90
4874;DHT22;2451;49.970;9.068;2023-02-04T05:50:53;5.70;99.90
4874;DHT22;2451;49.970;9.068;2023-02-04T05:53:18;5.60;99.90
4874;DHT22;2451;49.970;9.068;2023-02-04T05:55:44;5.60;99.90
4874;DHT22;2451;49.970;9.068;2023-02-04T05:58:10;5.60;99.90
4874;DHT22;2451;49.970;9.068;2023-02-04T06:00:35;5.60;99.90
4874;DHT22;2451;49.970;9.068;2023-02-04T06:03:01;5.50;99.90
4874;DHT22;2451;49.970;9.068;2023-02-04T06:05:26;5.50;99.90
4874;DHT22;2451;49.970;9.068;2023-02-04T06:07:52;5.50;99.90
4874;DHT22;2451;49.970;9.068;2023-02-04T06:10:17;5.40;99.90
4874;DHT22;2451;49.970;9.068;2023-02-04T06:12:45;5.40;99.90
4874;DHT22;2451;49.970;9.068;2023-02-04T06:15:11;5.40;99.90
4874;DHT22;2451;49.970;9.068;2023-02-04T06:17:37;5.40;99.90
4874;DHT22;2451;49.970;9.068;2023-02-04T06:20:03;5.30;99.90
4874;DHT22;2451;49.970;9.068;2023-02-04T06:22:29;5.30;99.90
4874;DHT22;2451;49.970;9.068;2023-02-04T06:24:55;5.40;99.90
4874;DHT22;2451;49.970;9.068;2023-02-04T06:27:20;5.30;99.90
4874;DHT22;2451;49.970;9.068;2023-02-04T06:29:49;5.30;99.90
4874;DHT22;2451;49.970;9.068;2023-02-04T06:32:16;5.30;99.90
4874;DHT22;2451;49.970;9.068;2023-02-04T06:34:41;5.40;99.90
4874;DHT22;2451;49.970;9.068;2023-02-04T06:37:07;5.40;99.90
4874;DHT22;2451;49.970;9.068;2023-02-04T06:39:32;5.50;99.90
4874;DHT22;2451;49.970;9.068;2023-02-04T06:41:58;5.50;99.90
4874;DHT22;2451;49.970;9.068;2023-02-04T06:44:23;5.60;99.90
4874;DHT22;2451;49.970;9.068;2023-02-04T06:46:49;5.50;99.90
4874;DHT22;2451;49.970;9.068;2023-02-04T06:49:14;5.50;99.90
4874;DHT22;2451;49.970;9.068;2023-02-04T06:51:40;5.40;99.90
4874;DHT22;2451;49.970;9.068;2023-02-04T06:54:05;5.40;99.90
4874;DHT22;2451;49.970;9.068;2023-02-04T06:56:31;5.40;99.90
4874;DHT22;2451;49.970;9.068;2023-02-04T06:58:57;5.40;99.90
4874;DHT22;2451;49.970;9.068;2023-02-04T07:01:22;5.40;99.90
4874;DHT22;2451;49.970;9.068;2023-02-04T07:03:48;5.40;99.90
4874;DHT22;2451;49.970;9.068;2023-02-04T07:06:13;5.40;99.90
4874;DHT22;2451;49.970;9.068;2023-02-04T07:08:39;5.40;99.90
4874;DHT22;2451;49.970;9.068;2023-02-04T07:11:04;5.40;99.90
4874;DHT22;2451;49.970;9.068;2023-02-04T07:13:30;5.40;99.90
4874;DHT22;2451;49.970;9.068;2023-02-04T07:15:55;5.40;99.90
4874;DHT22;2451;49.970;9.068;2023-02-04T07:18:21;5.40;99.90
4874;DHT22;2451;49.970;9.068;2023-02-04T07:20:47;5.40;99.90
4874;DHT22;2451;49.970;9.068;2023-02-04T07:23:12;5.40;99.90
4874;DHT22;2451;49.970;9.068;2023-02-04T07:25:38;5.40;99.90
4874;DHT22;2451;49.970;9.068;2023-02-04T07:28:04;5.40;99.90
4874;DHT22;2451;49.970;9.068;2023-02-04T07:30:30;5.30;99.90
4874;DHT22;2451;49.970;9.068;2023-02-04T07:32:56;5.30;99.90
4874;DHT22;2451;49.970;9.068;2023-02-04T07:35:22;5.30;99.90
4874;DHT22;2451;49.970;9.068;2023-02-04T07:37:48;5.20;99.90
4874;DHT22;2451;49.970;9.068;2023-02-04T07:40:14;5.20;99.90
4874;DHT22;2451;49.970;9.068;2023-02-04T07:42:40;5.20;99.90
4874;DHT22;2451;49.970;9.068;2023-02-04T07:45:06;5.20;99.90
4874;DHT22;2451;49.970;9.068;2023-02-04T07:47:31;5.20;99.90
4874;DHT22;2451;49.970;9.068;2023-02-04T07:49:57;5.20;99.90
4874;DHT22;2451;49.970;9.068;2023-02-04T07:52:24;5.20;99.90
4874;DHT22;2451;49.970;9.068;2023-02-04T07:54:49;5.10;99.90
4874;DHT22;2451;49.970;9.068;2023-02-04T07:57:19;5.10;99.90
4874;DHT22;2451;49.970;9.068;2023-02-04T07:59:45;5.10;99.90
4874;DHT22;2451;49.970;9.068;2023-02-04T08:02:10;5.10;99.90
4874;DHT22;2451;49.970;9.068;2023-02-04T08:04:36;5.20;99.90
4874;DHT22;2451;49.970;9.068;2023-02-04T08:07:04;5.20;99.90
4874;DHT22;2451;49.970;9.068;2023-02-04T08:09:30;5.20;99.90
4874;DHT22;2451;49.970;9.068;2023-02-04T08:11:56;5.20;99.90
4874;DHT22;2451;49.970;9.068;2023-02-04T08:14:21;5.20;99.90
4874;DHT22;2451;49.970;9.068;2023-02-04T08:16:47;5.10;99.90
4874;DHT22;2451;49.970;9.068;2023-02-04T08:19:13;5.20;99.90
4874;DHT22;2451;49.970;9.068;2023-02-04T08:21:44;5.20;99.90
4874;DHT22;2451;49.970;9.068;2023-02-04T08:24:10;5.20;99.90
4874;DHT22;2451;49.970;9.068;2023-02-04T08:26:36;5.20;99.90
4874;DHT22;2451;49.970;9.068;2023-02-04T08:29:02;5.30;99.90
4874;DHT22;2451;49.970;9.068;2023-02-04T08:31:27;5.40;99.90
4874;DHT22;2451;49.970;9.068;2023-02-04T08:33:53;5.50;99.90
4874;DHT22;2451;49.970;9.068;2023-02-04T08:36:19;5.50;99.90
4874;DHT22;2451;49.970;9.068;2023-02-04T08:38:44;5.50;99.90
4874;DHT22;2451;49.970;9.068;2023-02-04T08:41:10;5.60;99.90
4874;DHT22;2451;49.970;9.068;2023-02-04T08:43:35;5.70;99.90
4874;DHT22;2451;49.970;9.068;2023-02-04T08:46:04;5.80;99.90
4874;DHT22;2451;49.970;9.068;2023-02-04T08:48:29;5.90;99.90
4874;DHT22;2451;49.970;9.068;2023-02-04T08:50:55;6.00;99.90
4874;DHT22;2451;49.970;9.068;2023-02-04T08:53:20;6.10;99.90
4874;DHT22;2451;49.970;9.068;2023-02-04T08:55:46;6.20;99.90
4874;DHT22;2451;49.970;9.068;2023-02-04T08:58:12;6.20;99.90
4874;DHT22;2451;49.970;9.068;2023-02-04T09:00:37;6.30;99.90
4874;DHT22;2451;49.970;9.068;2023-02-04T09:03:03;6.30;99.90
4874;DHT22;2451;49.970;9.068;2023-02-04T09:05:28;6.40;99.90
4874;DHT22;2451;49.970;9.068;2023-02-04T09:07:54;6.50;99.90
4874;DHT22;2451;49.970;9.068;2023-02-04T09:10:19;6.60;99.90
4874;DHT22;2451;49.970;9.068;2023-02-04T09:12:45;6.70;99.90
4874;DHT22;2451;49.970;9.068;2023-02-04T09:15:11;6.90;99.90
4874;DHT22;2451;49.970;9.068;2023-02-04T09:17:37;7.10;99.90
4874;DHT22;2451;49.970;9.068;2023-02-04T09:20:04;7.10;99.90
4874;DHT22;2451;49.970;9.068;2023-02-04T09:22:30;7.20;99.90
4874;DHT22;2451;49.970;9.068;2023-02-04T09:24:56;7.40;99.90
4874;DHT22;2451;49.970;9.068;2023-02-04T09:27:22;7.50;99.90
4874;DHT22;2451;49.970;9.068;2023-02-04T09:29:47;7.60;99.90
4874;DHT22;2451;49.970;9.068;2023-02-04T09:32:13;7.80;99.90
4874;DHT22;2451;49.970;9.068;2023-02-04T09:34:39;8.20;99.90
4874;DHT22;2451;49.970;9.068;2023-02-04T09:37:04;8.70;99.90
4874;DHT22;2451;49.970;9.068;2023-02-04T09:39:30;9.40;99.90
4874;DHT22;2451;49.970;9.068;2023-02-04T09:41:56;10.10;99.90
4874;DHT22;2451;49.970;9.068;2023-02-04T09:44:24;10.40;99.90
4874;DHT22;2451;49.970;9.068;2023-02-04T09:46:53;10.60;99.90
4874;DHT22;2451;49.970;9.068;2023-02-04T09:49:19;10.60;99.90
4874;DHT22;2451;49.970;9.068;2023-02-04T09:51:45;10.60;99.90
4874;DHT22;2451;49.970;9.068;2023-02-04T09:54:14;10.60;99.90
4874;DHT22;2451;49.970;9.068;2023-02-04T09:56:40;10.30;99.90
4874;DHT22;2451;49.970;9.068;2023-02-04T09:59:28;9.90;99.90
4874;DHT22;2451;49.970;9.068;2023-02-04T10:02:00;9.90;99.90
4874;DHT22;2451;49.970;9.068;2023-02-04T10:04:26;9.80;99.90
4874;DHT22;2451;49.970;9.068;2023-02-04T10:06:54;9.80;99.90
4874;DHT22;2451;49.970;9.068;2023-02-04T10:09:22;9.70;99.90
4874;DHT22;2451;49.970;9.068;2023-02-04T10:11:48;9.60;99.90
4874;DHT22;2451;49.970;9.068;2023-02-04T10:14:16;9.50;99.90
4874;DHT22;2451;49.970;9.068;2023-02-04T10:16:48;9.30;99.90
4874;DHT22;2451;49.970;9.068;2023-02-04T10:19:15;9.20;99.90
4874;DHT22;2451;49.970;9.068;2023-02-04T10:21:43;9.10;99.90
4874;DHT22;2451;49.970;9.068;2023-02-04T10:24:15;9.10;99.90
4874;DHT22;2451;49.970;9.068;2023-02-04T10:26:41;9.00;99.90
4874;DHT22;2451;49.970;9.068;2023-02-04T10:29:13;8.90;99.90
4874;DHT22;2451;49.970;9.068;2023-02-04T10:31:49;8.90;99.90
4874;DHT22;2451;49.970;9.068;2023-02-04T10:34:20;8.90;99.90
4874;DHT22;2451;49.970;9.068;2023-02-04T10:36:48;8.80;99.90
4874;DHT22;2451;49.970;9.068;2023-02-04T10:39:26;8.60;99.90
4874;DHT22;2451;49.970;9.068;2023-02-04T10:41:56;8.50;99.90
4874;DHT22;2451;49.970;9.068;2023-02-04T10:44:30;8.50;99.90
4874;DHT22;2451;49.970;9.068;2023-02-04T10:47:14;8.80;99.90
4874;DHT22;2451;49.970;9.068;2023-02-04T10:50:00;9.40;99.90
4874;DHT22;2451;49.970;9.068;2023-02-04T10:52:46;9.90;99.90
4874;DHT22;2451;49.970;9.068;2023-02-04T10:55:18;10.30;99.90
4874;DHT22;2451;49.970;9.068;2023-02-04T10:57:46;10.40;99.90
4874;DHT22;2451;49.970;9.068;2023-02-04T11:00:23;10.40;99.90
4874;DHT22;2451;49.970;9.068;2023-02-04T11:03:14;10.50;99.90
4874;DHT22;2451;49.970;9.068;2023-02-04T11:05:40;10.60;99.90
4874;DHT22;2451;49.970;9.068;2023-02-04T11:08:27;10.40;99.90
4874;DHT22;2451;49.970;9.068;2023-02-04T11:10:59;10.20;99.90
4874;DHT22;2451;49.970;9.068;2023-02-04T11:13:38;10.00;99.90
4874;DHT22;2451;49.970;9.068;2023-02-04T11:19:03;9.50;99.90
4874;DHT22;2451;49.970;9.068;2023-02-04T11:27:16;8.90;99.90
4874;DHT22;2451;49.970;9.068;2023-02-04T11:29:43;8.90;99.90
4874;DHT22;2451;49.970;9.068;2023-02-04T11:37:41;8.90;99.90
4874;DHT22;2451;49.970;9.068;2023-02-04T11:40:23;8.90;99.90
4874;DHT22;2451;49.970;9.068;2023-02-04T11:42:49;8.90;99.90
4874;DHT22;2451;49.970;9.068;2023-02-04T11:45:24;8.90;99.90
4874;DHT22;2451;49.970;9.068;2023-02-04T11:47:50;8.90;99.90
4874;DHT22;2451;49.970;9.068;2023-02-04T11:50:18;8.90;99.90
4874;DHT22;2451;49.970;9.068;2023-02-04T11:52:45;8.90;99.90
4874;DHT22;2451;49.970;9.068;2023-02-04T11:55:11;8.90;99.90
4874;DHT22;2451;49.970;9.068;2023-02-04T11:57:44;9.00;99.90
4874;DHT22;2451;49.970;9.068;2023-02-04T12:00:22;9.00;99.90
4874;DHT22;2451;49.970;9.068;2023-02-04T12:02:54;9.00;99.90
4874;DHT22;2451;49.970;9.068;2023-02-04T12:05:20;9.00;99.90
4874;DHT22;2451;49.970;9.068;2023-02-04T12:07:47;9.00;99.90
4874;DHT22;2451;49.970;9.068;2023-02-04T12:12:50;9.20;99.90
4874;DHT22;2451;49.970;9.068;2023-02-04T12:15:30;9.40;99.90
4874;DHT22;2451;49.970;9.068;2023-02-04T12:18:06;9.50;99.90
4874;DHT22;2451;49.970;9.068;2023-02-04T12:20:33;9.60;99.90
4874;DHT22;2451;49.970;9.068;2023-02-04T12:22:59;9.80;99.90
4874;DHT22;2451;49.970;9.068;2023-02-04T12:25:25;10.20;99.90
4874;DHT22;2451;49.970;9.068;2023-02-04T12:27:52;10.50;99.90
4874;DHT22;2451;49.970;9.068;2023-02-04T12:30:20;11.20;99.90
4874;DHT22;2451;49.970;9.068;2023-02-04T12:32:46;11.60;99.90
4874;DHT22;2451;49.970;9.068;2023-02-04T12:35:11;11.90;99.90
4874;DHT22;2451;49.970;9.068;2023-02-04T12:37:37;12.00;99.90
4874;DHT22;2451;49.970;9.068;2023-02-04T12:40:02;12.00;99.90
4874;DHT22;2451;49.970;9.068;2023-02-04T12:42:28;11.90;99.90
4874;DHT22;2451;49.970;9.068;2023-02-04T12:44:54;11.80;99.90
4874;DHT22;2451;49.970;9.068;2023-02-04T12:47:19;11.60;99.90
4874;DHT22;2451;49.970;9.068;2023-02-04T12:49:45;11.30;99.90
4874;DHT22;2451;49.970;9.068;2023-02-04T12:52:11;11.20;99.90
4874;DHT22;2451;49.970;9.068;2023-02-04T12:54:36;11.00;99.90
4874;DHT22;2451;49.970;9.068;2023-02-04T12:57:02;10.90;99.90
4874;DHT22;2451;49.970;9.068;2023-02-04T12:59:28;10.70;99.90
4874;DHT22;2451;49.970;9.068;2023-02-04T13:01:56;10.50;99.90
4874;DHT22;2451;49.970;9.068;2023-02-04T13:04:21;10.30;99.90
4874;DHT22;2451;49.970;9.068;2023-02-04T13:06:47;10.20;99.90
4874;DHT22;2451;49.970;9.068;2023-02-04T13:09:12;10.10;99.90
4874;DHT22;2451;49.970;9.068;2023-02-04T13:11:38;10.00;99.90
4874;DHT22;2451;49.970;9.068;2023-02-04T13:14:03;9.80;99.90
4874;DHT22;2451;49.970;9.068;2023-02-04T13:16:29;9.60;99.90
4874;DHT22;2451;49.970;9.068;2023-02-04T13:18:55;9.60;99.90
4874;DHT22;2451;49.970;9.068;2023-02-04T13:21:20;9.40;99.90
4874;DHT22;2451;49.970;9.068;2023-02-04T13:23:49;9.30;99.90
4874;DHT22;2451;49.970;9.068;2023-02-04T13:26:14;9.20;99.90
4874;DHT22;2451;49.970;9.068;2023-02-04T13:28:40;9.10;99.90
4874;DHT22;2451;49.970;9.068;2023-02-04T13:31:05;9.10;99.90
4874;DHT22;2451;49.970;9.068;2023-02-04T13:33:31;9.10;99.90
4874;DHT22;2451;49.970;9.068;2023-02-04T13:35:57;9.00;99.90
4874;DHT22;2451;49.970;9.068;2023-02-04T13:38:23;9.00;99.90
4874;DHT22;2451;49.970;9.068;2023-02-04T13:40:49;9.00;99.90
4874;DHT22;2451;49.970;9.068;2023-02-04T13:43:15;8.90;99.90
4874;DHT22;2451;49.970;9.068;2023-02-04T13:45:40;8.90;99.90
4874;DHT22;2451;49.970;9.068;2023-02-04T13:48:12;8.90;99.90
4874;DHT22;2451;49.970;9.068;2023-02-04T13:50:38;8.90;99.90
4874;DHT22;2451;49.970;9.068;2023-02-04T13:53:03;8.90;99.90
4874;DHT22;2451;49.970;9.068;2023-02-04T13:55:29;9.00;99.90
4874;DHT22;2451;49.970;9.068;2023-02-04T13:57:57;9.00;99.90
4874;DHT22;2451;49.970;9.068;2023-02-04T14:00:23;8.90;99.90
4874;DHT22;2451;49.970;9.068;2023-02-04T14:02:48;8.80;99.90
4874;DHT22;2451;49.970;9.068;2023-02-04T14:05:15;8.80;99.90
4874;DHT22;2451;49.970;9.068;2023-02-04T14:07:40;8.80;99.90
4874;DHT22;2451;49.970;9.068;2023-02-04T14:10:06;8.90;99.90
4874;DHT22;2451;49.970;9.068;2023-02-04T14:12:32;9.20;99.90
4874;DHT22;2451;49.970;9.068;2023-02-04T14:14:58;9.40;99.90
4874;DHT22;2451;49.970;9.068;2023-02-04T14:17:23;9.40;99.90
4874;DHT22;2451;49.970;9.068;2023-02-04T14:19:49;9.40;99.90
4874;DHT22;2451;49.970;9.068;2023-02-04T14:22:15;9.40;99.90
4874;DHT22;2451;49.970;9.068;2023-02-04T14:24:41;9.40;99.90
4874;DHT22;2451;49.970;9.068;2023-02-04T14:27:08;9.20;99.90
4874;DHT22;2451;49.970;9.068;2023-02-04T14:29:34;9.10;99.90
4874;DHT22;2451;49.970;9.068;2023-02-04T14:32:00;9.10;99.90
4874;DHT22;2451;49.970;9.068;2023-02-04T14:34:26;9.10;99.90
4874;DHT22;2451;49.970;9.068;2023-02-04T14:36:51;9.10;99.90
4874;DHT22;2451;49.970;9.068;2023-02-04T14:39:17;9.30;99.90
4874;DHT22;2451;49.970;9.068;2023-02-04T14:41:43;9.40;99.90
4874;DHT22;2451;49.970;9.068;2023-02-04T14:44:09;9.60;99.90
4874;DHT22;2451;49.970;9.068;2023-02-04T14:46:34;9.80;99.90
4874;DHT22;2451;49.970;9.068;2023-02-04T14:49:00;10.10;99.90
4874;DHT22;2451;49.970;9.068;2023-02-04T14:51:26;10.30;99.90
4874;DHT22;2451;49.970;9.068;2023-02-04T14:53:51;10.50;99.90
4874;DHT22;2451;49.970;9.068;2023-02-04T14:56:17;10.70;99.90
4874;DHT22;2451;49.970;9.068;2023-02-04T14:58:42;10.80;99.90
4874;DHT22;2451;49.970;9.068;2023-02-04T15:01:08;10.90;99.90
4874;DHT22;2451;49.970;9.068;2023-02-04T15:03:34;10.70;99.90
4874;DHT22;2451;49.970;9.068;2023-02-04T15:05:59;10.70;99.90
4874;DHT22;2451;49.970;9.068;2023-02-04T15:08:25;10.70;99.90
4874;DHT22;2451;49.970;9.068;2023-02-04T15:10:50;10.50;99.90
4874;DHT22;2451;49.970;9.068;2023-02-04T15:13:16;10.50;99.90
4874;DHT22;2451;49.970;9.068;2023-02-04T15:15:41;10.50;99.90
4874;DHT22;2451;49.970;9.068;2023-02-04T15:18:07;10.40;99.90
4874;DHT22;2451;49.970;9.068;2023-02-04T15:20:32;10.20;99.90
4874;DHT22;2451;49.970;9.068;2023-02-04T15:22:58;10.00;99.90
4874;DHT22;2451;49.970;9.068;2023-02-04T15:25:24;9.80;99.90
4874;DHT22;2451;49.970;9.068;2023-02-04T15:27:50;9.70;99.90
4874;DHT22;2451;49.970;9.068;2023-02-04T15:30:15;9.50;99.90
4874;DHT22;2451;49.970;9.068;2023-02-04T15:32:41;9.50;99.90
4874;DHT22;2451;49.970;9.068;2023-02-04T15:35:07;9.50;99.90
4874;DHT22;2451;49.970;9.068;2023-02-04T15:37:34;9.40;99.90
4874;DHT22;2451;49.970;9.068;2023-02-04T15:39:59;9.40;99.90
4874;DHT22;2451;49.970;9.068;2023-02-04T15:42:25;9.30;99.90
4874;DHT22;2451;49.970;9.068;2023-02-04T15:44:50;9.30;99.90
4874;DHT22;2451;49.970;9.068;2023-02-04T15:47:17;9.20;99.90
4874;DHT22;2451;49.970;9.068;2023-02-04T15:49:44;9.10;99.90
4874;DHT22;2451;49.970;9.068;2023-02-04T15:52:09;9.00;99.90
4874;DHT22;2451;49.970;9.068;2023-02-04T15:54:35;8.80;99.90
4874;DHT22;2451;49.970;9.068;2023-02-04T15:57:01;8.70;99.90
4874;DHT22;2451;49.970;9.068;2023-02-04T15:59:26;8.60;99.90
4874;DHT22;2451;49.970;9.068;2023-02-04T16:01:52;8.40;99.90
4874;DHT22;2451;49.970;9.068;2023-02-04T16:04:17;8.30;99.90
4874;DHT22;2451;49.970;9.068;2023-02-04T16:06:43;8.20;99.90
4874;DHT22;2451;49.970;9.068;2023-02-04T16:09:08;8.20;99.90
4874;DHT22;2451;49.970;9.068;2023-02-04T16:11:34;8.10;99.90
4874;DHT22;2451;49.970;9.068;2023-02-04T16:14:02;8.00;99.90
4874;DHT22;2451;49.970;9.068;2023-02-04T16:16:27;7.90;99.90
4874;DHT22;2451;49.970;9.068;2023-02-04T16:18:53;7.80;99.90
4874;DHT22;2451;49.970;9.068;2023-02-04T16:21:18;7.80;99.90
4874;DHT22;2451;49.970;9.068;2023-02-04T16:23:44;7.70;99.90
4874;DHT22;2451;49.970;9.068;2023-02-04T16:26:09;7.70;99.90
4874;DHT22;2451;49.970;9.068;2023-02-04T16:28:35;7.60;99.90
4874;DHT22;2451;49.970;9.068;2023-02-04T16:31:01;7.50;99.90
4874;DHT22;2451;49.970;9.068;2023-02-04T16:33:26;7.40;99.90